sensor_id;sensor_type;location;lat;lon;timestamp;temperature;humidity
52531;DHT22;38441;52.894;6.040;2023-07-13T00:00:19;17.80;99.90
52531;DHT22;38441;52.894;6.040;2023-07-13T00:02:45;18.00;99.90
52531;DHT22;38441;52.894;6.040;2023-07-13T00:05:10;18.10;99.90
52531;DHT22;38441;52.894;6.040;2023-07-13T00:07:37;18.10;99.90
52531;DHT22;38441;52.894;6.040;2023-07-13T00:10:03;18.20;99.90
52531;DHT22;38441;52.894;6.040;2023-07-13T00:12:32;17.90;99.90
52531;DHT22;38441;52.894;6.040;2023-07-13T00:14:59;17.80;99.90
52531;DHT22;38441;52.894;6.040;2023-07-13T00:17:26;17.80;99.90
52531;DHT22;38441;52.894;6.040;2023-07-13T00:19:52;18.00;99.90
52531;DHT22;38441;52.894;6.040;2023-07-13T00:22:19;17.90;99.90
52531;DHT22;38441;52.894;6.040;2023-07-13T00:24:45;18.00;99.90
52531;DHT22;38441;52.894;6.040;2023-07-13T00:27:11;17.90;99.90
52531;DHT22;38441;52.894;6.040;2023-07-13T00:29:37;17.60;99.90
52531;DHT22;38441;52.894;6.040;2023-07-13T00:32:04;17.70;99.90
52531;DHT22;38441;52.894;6.040;2023-07-13T00:34:30;17.70;99.90
52531;DHT22;38441;52.894;6.040;2023-07-13T00:36:56;17.70;99.90
52531;DHT22;38441;52.894;6.040;2023-07-13T00:39:22;17.90;99.90
52531;DHT22;38441;52.894;6.040;2023-07-13T00:41:48;17.80;99.90
52531;DHT22;38441;52.894;6.040;2023-07-13T00:44:15;18.20;99.90
52531;DHT22;38441;52.894;6.040;2023-07-13T00:46:42;17.70;99.90
52531;DHT22;38441;52.894;6.040;2023-07-13T00:49:10;17.70;99.90
52531;DHT22;38441;52.894;6.040;2023-07-13T00:51:43;17.70;99.90
52531;DHT22;38441;52.894;6.040;2023-07-13T00:54:13;17.50;99.90
52531;DHT22;38441;52.894;6.040;2023-07-13T00:56:41;17.50;99.90
52531;DHT22;38441;52.894;6.040;2023-07-13T00:59:10;17.60;99.90
52531;DHT22;38441;52.894;6.040;2023-07-13T01:01:37;17.80;99.90
52531;DHT22;38441;52.894;6.040;2023-07-13T01:04:05;17.40;99.90
52531;DHT22;38441;52.894;6.040;2023-07-13T01:06:35;17.50;99.90
52531;DHT22;38441;52.894;6.040;2023-07-13T01:09:02;17.50;99.90
52531;DHT22;38441;52.894;6.040;2023-07-13T01:11:28;17.60;99.90
52531;DHT22;38441;52.894;6.040;2023-07-13T01:13:53;17.60;99.90
52531;DHT22;38441;52.894;6.040;2023-07-13T01:16:27;17.50;99.90
52531;DHT22;38441;52.894;6.040;2023-07-13T01:18:54;17.50;99.90
52531;DHT22;38441;52.894;6.040;2023-07-13T01:21:23;17.40;99.90
52531;DHT22;38441;52.894;6.040;2023-07-13T01:23:49;17.70;99.90
52531;DHT22;38441;52.894;6.040;2023-07-13T01:26:15;17.50;99.90
52531;DHT22;38441;52.894;6.040;2023-07-13T01:28:41;17.70;99.90
52531;DHT22;38441;52.894;6.040;2023-07-13T01:31:06;17.50;99.90
52531;DHT22;38441;52.894;6.040;2023-07-13T01:33:33;17.60;99.90
52531;DHT22;38441;52.894;6.040;2023-07-13T01:36:00;17.30;99.90
52531;DHT22;38441;52.894;6.040;2023-07-13T01:38:28;17.30;99.90
52531;DHT22;38441;52.894;6.040;2023-07-13T01:40:54;17.50;99.90
52531;DHT22;38441;52.894;6.040;2023-07-13T01:43:20;17.50;99.90
52531;DHT22;38441;52.894;6.040;2023-07-13T01:45:46;17.30;99.90
52531;DHT22;38441;52.894;6.040;2023-07-13T01:48:13;17.40;99.90
52531;DHT22;38441;52.894;6.040;2023-07-13T01:50:39;17.30;99.90
52531;DHT22;38441;52.894;6.040;2023-07-13T01:53:05;17.20;99.90
52531;DHT22;38441;52.894;6.040;2023-07-13T01:55:31;17.40;99.90
52531;DHT22;38441;52.894;6.040;2023-07-13T01:57:57;17.20;99.90
52531;DHT22;38441;52.894;6.040;2023-07-13T02:00:23;17.10;99.90
52531;DHT22;38441;52.894;6.040;2023-07-13T02:02:50;17.10;99.90
52531;DHT22;38441;52.894;6.040;2023-07-13T02:05:16;17.00;99.90
52531;DHT22;38441;52.894;6.040;2023-07-13T02:07:42;17.00;99.90
52531;DHT22;38441;52.894;6.040;2023-07-13T02:10:09;17.40;99.90
52531;DHT22;38441;52.894;6.040;2023-07-13T02:12:35;16.90;99.90
52531;DHT22;38441;52.894;6.040;2023-07-13T02:15:01;17.10;99.90
52531;DHT22;38441;52.894;6.040;2023-07-13T02:17:27;16.90;99.90
52531;DHT22;38441;52.894;6.040;2023-07-13T02:19:53;16.90;99.90
52531;DHT22;38441;52.894;6.040;2023-07-13T02:22:19;16.90;99.90
52531;DHT22;38441;52.894;6.040;2023-07-13T02:24:45;17.00;99.90
52531;DHT22;38441;52.894;6.040;2023-07-13T02:27:10;17.00;99.90
52531;DHT22;38441;52.894;6.040;2023-07-13T02:29:36;17.10;99.90
52531;DHT22;38441;52.894;6.040;2023-07-13T02:32:02;16.90;99.90
52531;DHT22;38441;52.894;6.040;2023-07-13T02:34:28;16.80;99.90
52531;DHT22;38441;52.894;6.040;2023-07-13T02:36:54;16.90;99.90
52531;DHT22;38441;52.894;6.040;2023-07-13T02:39:19;16.80;99.90
52531;DHT22;38441;52.894;6.040;2023-07-13T02:41:45;17.00;99.90
52531;DHT22;38441;52.894;6.040;2023-07-13T02:44:13;16.80;99.90
52531;DHT22;38441;52.894;6.040;2023-07-13T02:46:39;17.80;99.90
52531;DHT22;38441;52.894;6.040;2023-07-13T02:49:05;17.00;99.90
52531;DHT22;38441;52.894;6.040;2023-07-13T02:51:31;16.70;99.90
52531;DHT22;38441;52.894;6.040;2023-07-13T02:54:02;16.90;99.90
52531;DHT22;38441;52.894;6.040;2023-07-13T02:56:30;16.80;99.90
52531;DHT22;38441;52.894;6.040;2023-07-13T02:58:56;16.80;99.90
52531;DHT22;38441;52.894;6.040;2023-07-13T03:01:22;16.90;99.90
52531;DHT22;38441;52.894;6.040;2023-07-13T03:03:49;16.90;99.90
52531;DHT22;38441;52.894;6.040;2023-07-13T03:06:16;16.70;99.90
52531;DHT22;38441;52.894;6.040;2023-07-13T03:08:43;16.60;99.90
52531;DHT22;38441;52.894;6.040;2023-07-13T03:11:14;16.80;99.90
52531;DHT22;38441;52.894;6.040;2023-07-13T03:13:40;16.60;99.90
52531;DHT22;38441;52.894;6.040;2023-07-13T03:16:07;16.80;99.90
52531;DHT22;38441;52.894;6.040;2023-07-13T03:18:33;16.80;99.90
52531;DHT22;38441;52.894;6.040;2023-07-13T03:20:59;16.80;99.90
52531;DHT22;38441;52.894;6.040;2023-07-13T03:23:25;16.80;99.90
52531;DHT22;38441;52.894;6.040;2023-07-13T03:26:05;16.90;99.90
52531;DHT22;38441;52.894;6.040;2023-07-13T03:28:31;17.70;99.90
52531;DHT22;38441;52.894;6.040;2023-07-13T03:31:04;16.90;99.90
52531;DHT22;38441;52.894;6.040;2023-07-13T03:33:30;16.40;99.90
52531;DHT22;38441;52.894;6.040;2023-07-13T03:35:57;16.70;99.90
52531;DHT22;38441;52.894;6.040;2023-07-13T03:38:23;16.60;99.90
52531;DHT22;38441;52.894;6.040;2023-07-13T03:40:48;16.90;99.90
52531;DHT22;38441;52.894;6.040;2023-07-13T03:43:14;16.60;99.90
52531;DHT22;38441;52.894;6.040;2023-07-13T03:45:40;16.80;99.90
52531;DHT22;38441;52.894;6.040;2023-07-13T03:48:06;16.70;99.90
52531;DHT22;38441;52.894;6.040;2023-07-13T03:50:32;16.80;99.90
52531;DHT22;38441;52.894;6.040;2023-07-13T03:52:59;16.90;99.90
52531;DHT22;38441;52.894;6.040;2023-07-13T03:55:25;17.00;99.90
52531;DHT22;38441;52.894;6.040;2023-07-13T03:57:58;17.80;99.90
52531;DHT22;38441;52.894;6.040;2023-07-13T04:00:24;17.00;99.90
52531;DHT22;38441;52.894;6.040;2023-07-13T04:02:50;17.00;99.90
52531;DHT22;38441;52.894;6.040;2023-07-13T04:05:16;17.00;99.90
52531;DHT22;38441;52.894;6.040;2023-07-13T04:07:41;16.80;99.90
52531;DHT22;38441;52.894;6.040;2023-07-13T04:10:07;17.10;99.90
52531;DHT22;38441;52.894;6.040;2023-07-13T04:12:33;16.80;99.90
52531;DHT22;38441;52.894;6.040;2023-07-13T04:14:59;17.10;99.90
52531;DHT22;38441;52.894;6.040;2023-07-13T04:17:25;17.00;99.90
52531;DHT22;38441;52.894;6.040;2023-07-13T04:19:50;17.10;99.90
52531;DHT22;38441;52.894;6.040;2023-07-13T04:22:16;17.10;99.90
52531;DHT22;38441;52.894;6.040;2023-07-13T04:24:42;17.20;99.90
52531;DHT22;38441;52.894;6.040;2023-07-13T04:27:08;16.80;99.90
52531;DHT22;38441;52.894;6.040;2023-07-13T04:29:33;17.10;99.90
52531;DHT22;38441;52.894;6.040;2023-07-13T04:31:59;17.00;99.90
52531;DHT22;38441;52.894;6.040;2023-07-13T04:34:25;17.00;99.90
52531;DHT22;38441;52.894;6.040;2023-07-13T04:36:51;17.10;99.90
52531;DHT22;38441;52.894;6.040;2023-07-13T04:39:16;16.90;99.90
52531;DHT22;38441;52.894;6.040;2023-07-13T04:41:42;16.80;99.90
52531;DHT22;38441;52.894;6.040;2023-07-13T04:44:08;17.20;99.90
52531;DHT22;38441;52.894;6.040;2023-07-13T04:46:33;17.50;99.90
52531;DHT22;38441;52.894;6.040;2023-07-13T04:48:59;17.20;99.90
52531;DHT22;38441;52.894;6.040;2023-07-13T04:51:26;17.20;99.90
52531;DHT22;38441;52.894;6.040;2023-07-13T04:53:52;17.10;99.90
52531;DHT22;38441;52.894;6.040;2023-07-13T04:56:18;17.10;99.90
52531;DHT22;38441;52.894;6.040;2023-07-13T04:58:45;16.90;99.90
52531;DHT22;38441;52.894;6.040;2023-07-13T05:01:11;17.10;99.90
52531;DHT22;38441;52.894;6.040;2023-07-13T05:03:46;17.00;99.90
52531;DHT22;38441;52.894;6.040;2023-07-13T05:06:15;16.70;99.90
52531;DHT22;38441;52.894;6.040;2023-07-13T05:08:41;17.30;99.90
52531;DHT22;38441;52.894;6.040;2023-07-13T05:11:07;16.10;99.90
52531;DHT22;38441;52.894;6.040;2023-07-13T05:16:29;16.90;99.90
52531;DHT22;38441;52.894;6.040;2023-07-13T05:18:59;18.50;99.90
52531;DHT22;38441;52.894;6.040;2023-07-13T05:21:32;17.30;99.90
52531;DHT22;38441;52.894;6.040;2023-07-13T05:24:00;18.60;99.90
52531;DHT22;38441;52.894;6.040;2023-07-13T05:26:35;17.20;99.90
52531;DHT22;38441;52.894;6.040;2023-07-13T05:29:04;17.10;99.90
52531;DHT22;38441;52.894;6.040;2023-07-13T05:31:35;18.70;99.90
52531;DHT22;38441;52.894;6.040;2023-07-13T05:34:06;18.70;99.90
52531;DHT22;38441;52.894;6.040;2023-07-13T05:36:46;18.20;99.90
52531;DHT22;38441;52.894;6.040;2023-07-13T05:39:18;17.50;99.90
52531;DHT22;38441;52.894;6.040;2023-07-13T05:42:07;17.50;99.90
52531;DHT22;38441;52.894;6.040;2023-07-13T05:44:33;16.40;99.90
52531;DHT22;38441;52.894;6.040;2023-07-13T05:46:59;17.30;99.90
52531;DHT22;38441;52.894;6.040;2023-07-13T05:49:40;18.20;99.90
52531;DHT22;38441;52.894;6.040;2023-07-13T05:53:22;17.80;99.90
52531;DHT22;38441;52.894;6.040;2023-07-13T05:56:08;18.30;99.90
52531;DHT22;38441;52.894;6.040;2023-07-13T05:58:34;14.40;99.90
52531;DHT22;38441;52.894;6.040;2023-07-13T06:01:14;17.80;99.90
52531;DHT22;38441;52.894;6.040;2023-07-13T06:03:49;15.90;99.90
52531;DHT22;38441;52.894;6.040;2023-07-13T06:06:18;18.90;99.90
52531;DHT22;38441;52.894;6.040;2023-07-13T06:08:47;17.00;99.90
52531;DHT22;38441;52.894;6.040;2023-07-13T06:11:34;17.60;99.90
52531;DHT22;38441;52.894;6.040;2023-07-13T06:14:19;19.10;99.90
52531;DHT22;38441;52.894;6.040;2023-07-13T06:16:48;19.20;99.90
52531;DHT22;38441;52.894;6.040;2023-07-13T06:19:14;19.40;99.90
52531;DHT22;38441;52.894;6.040;2023-07-13T06:21:49;19.30;99.90
52531;DHT22;38441;52.894;6.040;2023-07-13T06:24:21;19.40;99.90
52531;DHT22;38441;52.894;6.040;2023-07-13T06:26:47;19.60;99.90
52531;DHT22;38441;52.894;6.040;2023-07-13T06:29:13;15.40;99.90
52531;DHT22;38441;52.894;6.040;2023-07-13T06:31:39;18.40;99.90
52531;DHT22;38441;52.894;6.040;2023-07-13T06:34:08;16.90;99.90
52531;DHT22;38441;52.894;6.040;2023-07-13T06:36:33;18.90;99.90
52531;DHT22;38441;52.894;6.040;2023-07-13T06:38:59;18.40;99.90
52531;DHT22;38441;52.894;6.040;2023-07-13T06:41:36;18.10;99.90
52531;DHT22;38441;52.894;6.040;2023-07-13T06:44:10;15.90;99.90
52531;DHT22;38441;52.894;6.040;2023-07-13T06:46:53;19.90;99.90
52531;DHT22;38441;52.894;6.040;2023-07-13T06:53:10;20.00;99.90
52531;DHT22;38441;52.894;6.040;2023-07-13T06:56:06;19.90;99.90
52531;DHT22;38441;52.894;6.040;2023-07-13T06:59:38;18.40;99.90
52531;DHT22;38441;52.894;6.040;2023-07-13T07:02:24;19.90;99.90
52531;DHT22;38441;52.894;6.040;2023-07-13T07:05:04;19.10;99.90
52531;DHT22;38441;52.894;6.040;2023-07-13T07:11:48;17.60;99.90
52531;DHT22;38441;52.894;6.040;2023-07-13T07:14:19;19.20;99.90
52531;DHT22;38441;52.894;6.040;2023-07-13T07:17:20;17.50;99.90
52531;DHT22;38441;52.894;6.040;2023-07-13T07:20:10;20.40;99.90
52531;DHT22;38441;52.894;6.040;2023-07-13T07:22:45;18.80;99.90
52531;DHT22;38441;52.894;6.040;2023-07-13T07:25:21;20.30;99.90
52531;DHT22;38441;52.894;6.040;2023-07-13T07:31:46;20.40;99.90
52531;DHT22;38441;52.894;6.040;2023-07-13T07:34:41;20.50;99.90
52531;DHT22;38441;52.894;6.040;2023-07-13T07:48:32;18.10;99.90
52531;DHT22;38441;52.894;6.040;2023-07-13T07:51:04;21.30;99.90
52531;DHT22;38441;52.894;6.040;2023-07-13T07:53:56;19.10;99.90
52531;DHT22;38441;52.894;6.040;2023-07-13T07:57:27;20.80;99.90
52531;DHT22;38441;52.894;6.040;2023-07-13T08:00:27;19.20;99.90
52531;DHT22;38441;52.894;6.040;2023-07-13T08:03:02;21.50;99.90
52531;DHT22;38441;52.894;6.040;2023-07-13T08:05:28;20.70;99.90
52531;DHT22;38441;52.894;6.040;2023-07-13T08:08:07;19.40;99.90
52531;DHT22;38441;52.894;6.040;2023-07-13T08:10:35;19.30;99.90
52531;DHT22;38441;52.894;6.040;2023-07-13T08:13:31;20.00;99.90
52531;DHT22;38441;52.894;6.040;2023-07-13T08:16:10;19.30;99.90
52531;DHT22;38441;52.894;6.040;2023-07-13T08:26:13;19.10;99.90
52531;DHT22;38441;52.894;6.040;2023-07-13T08:40:51;17.90;99.90
52531;DHT22;38441;52.894;6.040;2023-07-13T09:18:11;19.50;99.90
52531;DHT22;38441;52.894;6.040;2023-07-13T09:42:00;20.30;99.90
52531;DHT22;38441;52.894;6.040;2023-07-13T09:52:51;21.70;99.90
52531;DHT22;38441;52.894;6.040;2023-07-13T09:55:38;21.20;99.90
52531;DHT22;38441;52.894;6.040;2023-07-13T09:58:35;23.70;99.90
52531;DHT22;38441;52.894;6.040;2023-07-13T10:01:55;22.60;99.90
52531;DHT22;38441;52.894;6.040;2023-07-13T11:18:26;24.90;99.90
52531;DHT22;38441;52.894;6.040;2023-07-13T12:00:00;24.40;99.90
52531;DHT22;38441;52.894;6.040;2023-07-13T12:02:40;24.20;99.90
52531;DHT22;38441;52.894;6.040;2023-07-13T12:07:43;24.40;99.90
52531;DHT22;38441;52.894;6.040;2023-07-13T12:18:57;27.10;99.90
52531;DHT22;38441;52.894;6.040;2023-07-13T12:22:11;25.50;99.90
52531;DHT22;38441;52.894;6.040;2023-07-13T12:25:26;25.40;99.90
52531;DHT22;38441;52.894;6.040;2023-07-13T12:27:58;23.40;99.90
52531;DHT22;38441;52.894;6.040;2023-07-13T13:57:37;24.20;99.90
52531;DHT22;38441;52.894;6.040;2023-07-13T14:00:28;24.00;99.90
52531;DHT22;38441;52.894;6.040;2023-07-13T14:10:22;26.70;99.90
52531;DHT22;38441;52.894;6.040;2023-07-13T14:13:26;25.50;99.90
52531;DHT22;38441;52.894;6.040;2023-07-13T14:15:54;24.80;99.90
52531;DHT22;38441;52.894;6.040;2023-07-13T14:18:39;24.30;99.90
52531;DHT22;38441;52.894;6.040;2023-07-13T14:28:22;26.10;99.90
52531;DHT22;38441;52.894;6.040;2023-07-13T14:31:11;26.10;99.90
52531;DHT22;38441;52.894;6.040;2023-07-13T14:42:05;24.30;99.90
52531;DHT22;38441;52.894;6.040;2023-07-13T14:49:50;24.30;99.90
52531;DHT22;38441;52.894;6.040;2023-07-13T15:19:49;25.00;99.90
52531;DHT22;38441;52.894;6.040;2023-07-13T15:22:15;23.80;99.90
52531;DHT22;38441;52.894;6.040;2023-07-13T15:49:47;22.10;99.90
52531;DHT22;38441;52.894;6.040;2023-07-13T15:58:20;22.50;99.90
